sensor_id;sensor_type;location;lat;lon;timestamp;pressure;altitude;pressure_sealevel;temperature;humidity
67434;BME280;54305;47.950;6.572;2023-08-24T00:02:07;94417.53;;;21.93;100.00
67434;BME280;54305;47.950;6.572;2023-08-24T00:04:33;94413.75;;;22.00;100.00
67434;BME280;54305;47.950;6.572;2023-08-24T00:06:59;94409.03;;;22.02;100.00
67434;BME280;54305;47.950;6.572;2023-08-24T00:09:24;94394.03;;;22.08;100.00
67434;BME280;54305;47.950;6.572;2023-08-24T00:11:49;94395.97;;;21.89;100.00
67434;BME280;54305;47.950;6.572;2023-08-24T00:14:15;94385.97;;;21.91;100.00
67434;BME280;54305;47.950;6.572;2023-08-24T00:16:40;94383.88;;;21.93;100.00
67434;BME280;54305;47.950;6.572;2023-08-24T00:19:06;94377.09;;;21.97;100.00
67434;BME280;54305;47.950;6.572;2023-08-24T00:21:31;94371.31;;;22.00;100.00
67434;BME280;54305;47.950;6.572;2023-08-24T00:23:57;94373.41;;;21.98;100.00
67434;BME280;54305;47.950;6.572;2023-08-24T00:26:24;94362.69;;;22.05;100.00
67434;BME280;54305;47.950;6.572;2023-08-24T00:28:50;94367.16;;;22.04;100.00
67434;BME280;54305;47.950;6.572;2023-08-24T00:31:15;94361.28;;;21.91;100.00
67434;BME280;54305;47.950;6.572;2023-08-24T00:33:41;94364.16;;;21.89;100.00
67434;BME280;54305;47.950;6.572;2023-08-24T00:36:06;94357.69;;;21.85;100.00
67434;BME280;54305;47.950;6.572;2023-08-24T00:38:32;94358.84;;;21.89;100.00
67434;BME280;54305;47.950;6.572;2023-08-24T00:40:57;94356.44;;;21.88;100.00
67434;BME280;54305;47.950;6.572;2023-08-24T00:43:24;94352.28;;;21.92;100.00
67434;BME280;54305;47.950;6.572;2023-08-24T00:45:50;94359.44;;;22.03;100.00
67434;BME280;54305;47.950;6.572;2023-08-24T00:48:17;94355.41;;;22.00;100.00
67434;BME280;54305;47.950;6.572;2023-08-24T00:50:42;94359.22;;;22.04;100.00
67434;BME280;54305;47.950;6.572;2023-08-24T00:53:08;94363.03;;;22.08;100.00
67434;BME280;54305;47.950;6.572;2023-08-24T00:55:33;94360.25;;;22.03;100.00
67434;BME280;54305;47.950;6.572;2023-08-24T00:57:58;94356.13;;;22.07;100.00
67434;BME280;54305;47.950;6.572;2023-08-24T01:00:24;94362.56;;;22.11;100.00
67434;BME280;54305;47.950;6.572;2023-08-24T01:02:49;94357.94;;;22.18;100.00
67434;BME280;54305;47.950;6.572;2023-08-24T01:05:15;94356.69;;;22.09;100.00
67434;BME280;54305;47.950;6.572;2023-08-24T01:07:40;94366.50;;;22.20;100.00
67434;BME280;54305;47.950;6.572;2023-08-24T01:10:05;94374.56;;;22.14;100.00
67434;BME280;54305;47.950;6.572;2023-08-24T01:15:13;94375.25;;;22.21;100.00
67434;BME280;54305;47.950;6.572;2023-08-24T01:17:39;94374.91;;;22.17;100.00
67434;BME280;54305;47.950;6.572;2023-08-24T01:20:07;94376.84;;;22.10;100.00
67434;BME280;54305;47.950;6.572;2023-08-24T01:22:41;94379.88;;;22.02;100.00
67434;BME280;54305;47.950;6.572;2023-08-24T01:27:37;94383.66;;;21.95;100.00
67434;BME280;54305;47.950;6.572;2023-08-24T01:30:05;94368.19;;;21.92;100.00
67434;BME280;54305;47.950;6.572;2023-08-24T01:32:31;94369.03;;;21.92;100.00
67434;BME280;54305;47.950;6.572;2023-08-24T01:34:57;94367.25;;;21.86;100.00
67434;BME280;54305;47.950;6.572;2023-08-24T01:37:22;94361.06;;;21.92;100.00
67434;BME280;54305;47.950;6.572;2023-08-24T01:39:53;94363.25;;;21.95;100.00
67434;BME280;54305;47.950;6.572;2023-08-24T01:42:23;94355.06;;;21.97;100.00
67434;BME280;54305;47.950;6.572;2023-08-24T01:44:52;94351.59;;;21.85;100.00
67434;BME280;54305;47.950;6.572;2023-08-24T01:47:19;94355.28;;;21.72;100.00
67434;BME280;54305;47.950;6.572;2023-08-24T01:49:45;94350.25;;;21.64;100.00
67434;BME280;54305;47.950;6.572;2023-08-24T01:52:10;94354.28;;;21.55;100.00
67434;BME280;54305;47.950;6.572;2023-08-24T01:54:36;94354.84;;;21.57;100.00
67434;BME280;54305;47.950;6.572;2023-08-24T01:57:04;94351.38;;;21.45;100.00
67434;BME280;54305;47.950;6.572;2023-08-24T01:59:29;94345.63;;;21.48;100.00
67434;BME280;54305;47.950;6.572;2023-08-24T02:01:54;94344.47;;;21.44;100.00
67434;BME280;54305;47.950;6.572;2023-08-24T02:04:19;94342.84;;;21.43;100.00
67434;BME280;54305;47.950;6.572;2023-08-24T02:06:45;94337.69;;;21.48;100.00
67434;BME280;54305;47.950;6.572;2023-08-24T02:09:10;94344.91;;;21.41;100.00
67434;BME280;54305;47.950;6.572;2023-08-24T02:11:35;94335.66;;;21.32;100.00
67434;BME280;54305;47.950;6.572;2023-08-24T02:14:00;94337.75;;;21.30;100.00
67434;BME280;54305;47.950;6.572;2023-08-24T02:16:26;94336.13;;;21.29;100.00
67434;BME280;54305;47.950;6.572;2023-08-24T02:18:51;94335.78;;;21.37;100.00
67434;BME280;54305;47.950;6.572;2023-08-24T02:21:17;94331.22;;;21.44;100.00
67434;BME280;54305;47.950;6.572;2023-08-24T02:23:42;94333.59;;;21.34;100.00
67434;BME280;54305;47.950;6.572;2023-08-24T02:26:07;94328.19;;;21.29;100.00
67434;BME280;54305;47.950;6.572;2023-08-24T02:28:33;94324.41;;;21.37;100.00
67434;BME280;54305;47.950;6.572;2023-08-24T02:31:02;94324.31;;;21.55;100.00
67434;BME280;54305;47.950;6.572;2023-08-24T02:33:27;94315.44;;;21.49;100.00
67434;BME280;54305;47.950;6.572;2023-08-24T02:35:52;94313.47;;;21.56;100.00
67434;BME280;54305;47.950;6.572;2023-08-24T02:38:18;94309.22;;;21.55;100.00
67434;BME280;54305;47.950;6.572;2023-08-24T02:40:43;94312.44;;;21.57;100.00
67434;BME280;54305;47.950;6.572;2023-08-24T02:43:08;94306.25;;;21.63;100.00
67434;BME280;54305;47.950;6.572;2023-08-24T02:45:33;94297.06;;;21.77;100.00
67434;BME280;54305;47.950;6.572;2023-08-24T02:47:59;94303.50;;;21.81;100.00
67434;BME280;54305;47.950;6.572;2023-08-24T02:50:24;94298.31;;;21.86;100.00
67434;BME280;54305;47.950;6.572;2023-08-24T02:52:49;94292.56;;;21.89;100.00
67434;BME280;54305;47.950;6.572;2023-08-24T02:55:16;94283.69;;;21.95;100.00
67434;BME280;54305;47.950;6.572;2023-08-24T02:57:41;94279.63;;;22.04;100.00
67434;BME280;54305;47.950;6.572;2023-08-24T03:00:07;94277.53;;;22.18;100.00
67434;BME280;54305;47.950;6.572;2023-08-24T03:02:32;94269.47;;;22.13;100.00
67434;BME280;54305;47.950;6.572;2023-08-24T03:04:58;94270.75;;;22.10;100.00
67434;BME280;54305;47.950;6.572;2023-08-24T03:07:23;94276.88;;;21.99;100.00
67434;BME280;54305;47.950;6.572;2023-08-24T03:09:49;94269.84;;;21.93;100.00
67434;BME280;54305;47.950;6.572;2023-08-24T03:12:14;94256.47;;;21.88;100.00
67434;BME280;54305;47.950;6.572;2023-08-24T03:14:39;94261.78;;;21.88;100.00
67434;BME280;54305;47.950;6.572;2023-08-24T03:17:04;94260.50;;;21.91;100.00
67434;BME280;54305;47.950;6.572;2023-08-24T03:19:30;94259.59;;;21.85;100.00
67434;BME280;54305;47.950;6.572;2023-08-24T03:21:55;94254.66;;;21.77;100.00
67434;BME280;54305;47.950;6.572;2023-08-24T03:24:20;94250.69;;;21.68;100.00
67434;BME280;54305;47.950;6.572;2023-08-24T03:26:45;94260.59;;;21.61;100.00
67434;BME280;54305;47.950;6.572;2023-08-24T03:29:11;94256.66;;;21.52;100.00
67434;BME280;54305;47.950;6.572;2023-08-24T03:31:36;94246.06;;;21.52;100.00
67434;BME280;54305;47.950;6.572;2023-08-24T03:34:01;94257.81;;;21.56;100.00
67434;BME280;54305;47.950;6.572;2023-08-24T03:36:28;94245.16;;;21.58;100.00
67434;BME280;54305;47.950;6.572;2023-08-24T03:38:53;94251.75;;;21.67;100.00
67434;BME280;54305;47.950;6.572;2023-08-24T03:41:19;94250.84;;;21.73;100.00
67434;BME280;54305;47.950;6.572;2023-08-24T03:43:44;94250.50;;;21.70;100.00
67434;BME280;54305;47.950;6.572;2023-08-24T03:46:09;94250.81;;;21.62;100.00
67434;BME280;54305;47.950;6.572;2023-08-24T03:48:34;94256.09;;;21.62;100.00
67434;BME280;54305;47.950;6.572;2023-08-24T03:51:00;94254.94;;;21.58;100.00
67434;BME280;54305;47.950;6.572;2023-08-24T03:53:25;94249.19;;;21.49;100.00
67434;BME280;54305;47.950;6.572;2023-08-24T03:55:51;94250.56;;;21.40;100.00
67434;BME280;54305;47.950;6.572;2023-08-24T03:58:17;94254.38;;;21.44;100.00
67434;BME280;54305;47.950;6.572;2023-08-24T04:00:43;94248.16;;;21.50;100.00
67434;BME280;54305;47.950;6.572;2023-08-24T04:03:08;94252.41;;;21.63;100.00
67434;BME280;54305;47.950;6.572;2023-08-24T04:05:34;94251.41;;;21.75;100.00
67434;BME280;54305;47.950;6.572;2023-08-24T04:07:59;94259.47;;;21.80;100.00
67434;BME280;54305;47.950;6.572;2023-08-24T04:10:27;94262.00;;;21.75;100.00
67434;BME280;54305;47.950;6.572;2023-08-24T04:12:52;94259.31;;;21.52;100.00
67434;BME280;54305;47.950;6.572;2023-08-24T04:15:18;94256.22;;;21.55;100.00
67434;BME280;54305;47.950;6.572;2023-08-24T04:17:43;94264.25;;;21.37;100.00
67434;BME280;54305;47.950;6.572;2023-08-24T04:20:09;94261.47;;;21.32;100.00
67434;BME280;54305;47.950;6.572;2023-08-24T04:22:35;94263.56;;;21.30;100.00
67434;BME280;54305;47.950;6.572;2023-08-24T04:25:00;94260.00;;;21.48;100.00
67434;BME280;54305;47.950;6.572;2023-08-24T04:27:25;94259.06;;;21.42;100.00
67434;BME280;54305;47.950;6.572;2023-08-24T04:29:50;94259.09;;;21.54;100.00
67434;BME280;54305;47.950;6.572;2023-08-24T04:32:15;94257.59;;;21.46;100.00
67434;BME280;54305;47.950;6.572;2023-08-24T04:34:41;94259.19;;;21.47;100.00
67434;BME280;54305;47.950;6.572;2023-08-24T04:37:06;94260.94;;;21.53;100.00
67434;BME280;54305;47.950;6.572;2023-08-24T04:39:32;94259.19;;;21.47;100.00
67434;BME280;54305;47.950;6.572;2023-08-24T04:41:57;94258.06;;;21.43;100.00
67434;BME280;54305;47.950;6.572;2023-08-24T04:44:22;94260.59;;;21.38;100.00
67434;BME280;54305;47.950;6.572;2023-08-24T04:46:48;94263.56;;;21.30;100.00
67434;BME280;54305;47.950;6.572;2023-08-24T04:49:14;94264.00;;;21.27;100.00
67434;BME280;54305;47.950;6.572;2023-08-24T04:51:39;94268.16;;;21.35;100.00
67434;BME280;54305;47.950;6.572;2023-08-24T04:54:04;94265.88;;;21.38;100.00
67434;BME280;54305;47.950;6.572;2023-08-24T04:56:29;94272.91;;;21.44;100.00
67434;BME280;54305;47.950;6.572;2023-08-24T04:58:55;94269.91;;;21.52;100.00
67434;BME280;54305;47.950;6.572;2023-08-24T05:01:25;94279.84;;;21.57;100.00
67434;BME280;54305;47.950;6.572;2023-08-24T05:03:51;94280.63;;;21.57;100.00
67434;BME280;54305;47.950;6.572;2023-08-24T05:06:17;94283.63;;;21.49;100.00
67434;BME280;54305;47.950;6.572;2023-08-24T05:08:42;94290.66;;;21.44;100.00
67434;BME280;54305;47.950;6.572;2023-08-24T05:11:16;94291.47;;;21.44;100.00
67434;BME280;54305;47.950;6.572;2023-08-24T05:13:42;94293.06;;;21.45;100.00
67434;BME280;54305;47.950;6.572;2023-08-24T05:16:07;94308.41;;;21.43;100.00
67434;BME280;54305;47.950;6.572;2023-08-24T05:18:33;94306.19;;;21.40;100.00
67434;BME280;54305;47.950;6.572;2023-08-24T05:20:59;94308.28;;;21.38;100.00
67434;BME280;54305;47.950;6.572;2023-08-24T05:23:24;94316.81;;;21.40;100.00
67434;BME280;54305;47.950;6.572;2023-08-24T05:25:49;94314.28;;;21.45;100.00
67434;BME280;54305;47.950;6.572;2023-08-24T05:28:15;94328.47;;;21.51;100.00
67434;BME280;54305;47.950;6.572;2023-08-24T05:30:40;94316.38;;;21.66;100.00
67434;BME280;54305;47.950;6.572;2023-08-24T05:33:05;94322.44;;;21.85;100.00
67434;BME280;54305;47.950;6.572;2023-08-24T05:35:30;94320.47;;;21.92;100.00
67434;BME280;54305;47.950;6.572;2023-08-24T05:37:56;94325.19;;;21.78;100.00
67434;BME280;54305;47.950;6.572;2023-08-24T05:40:21;94327.25;;;21.76;100.00
67434;BME280;54305;47.950;6.572;2023-08-24T05:42:46;94333.16;;;21.78;100.00
67434;BME280;54305;47.950;6.572;2023-08-24T05:45:11;94329.00;;;21.82;100.00
67434;BME280;54305;47.950;6.572;2023-08-24T05:47:37;94330.28;;;21.91;100.00
67434;BME280;54305;47.950;6.572;2023-08-24T05:50:02;94324.16;;;22.02;100.00
67434;BME280;54305;47.950;6.572;2023-08-24T05:52:27;94320.91;;;22.12;100.00
67434;BME280;54305;47.950;6.572;2023-08-24T05:54:53;94323.47;;;22.30;100.00
67434;BME280;54305;47.950;6.572;2023-08-24T05:57:18;94319.44;;;22.50;100.00
67434;BME280;54305;47.950;6.572;2023-08-24T05:59:43;94320.97;;;22.74;100.00
67434;BME280;54305;47.950;6.572;2023-08-24T06:02:08;94328.09;;;22.85;100.00
67434;BME280;54305;47.950;6.572;2023-08-24T06:04:34;94321.06;;;22.91;100.00
67434;BME280;54305;47.950;6.572;2023-08-24T06:06:59;94320.88;;;22.97;100.00
67434;BME280;54305;47.950;6.572;2023-08-24T06:09:24;94324.13;;;22.99;100.00
67434;BME280;54305;47.950;6.572;2023-08-24T06:11:49;94322.34;;;22.88;100.00
67434;BME280;54305;47.950;6.572;2023-08-24T06:14:14;94321.09;;;22.79;100.00
67434;BME280;54305;47.950;6.572;2023-08-24T06:16:40;94317.03;;;22.88;100.00
67434;BME280;54305;47.950;6.572;2023-08-24T06:19:05;94324.13;;;22.99;100.00
67434;BME280;54305;47.950;6.572;2023-08-24T06:21:31;94317.41;;;23.08;100.00
67434;BME280;54305;47.950;6.572;2023-08-24T06:23:56;94310.38;;;23.30;100.00
67434;BME280;54305;47.950;6.572;2023-08-24T06:26:21;94319.19;;;23.47;100.00
67434;BME280;54305;47.950;6.572;2023-08-24T06:28:46;94314.84;;;23.58;100.00
67434;BME280;54305;47.950;6.572;2023-08-24T06:31:12;94312.28;;;23.79;100.00
67434;BME280;54305;47.950;6.572;2023-08-24T06:33:38;94309.97;;;23.99;100.00
67434;BME280;54305;47.950;6.572;2023-08-24T06:36:03;94312.34;;;24.17;100.00
67434;BME280;54305;47.950;6.572;2023-08-24T06:38:32;94309.50;;;24.40;100.00
67434;BME280;54305;47.950;6.572;2023-08-24T06:40:58;94312.94;;;24.57;100.00
67434;BME280;54305;47.950;6.572;2023-08-24T06:43:23;94309.44;;;24.73;100.00
67434;BME280;54305;47.950;6.572;2023-08-24T06:45:48;94307.38;;;24.80;100.00
67434;BME280;54305;47.950;6.572;2023-08-24T06:48:14;94313.44;;;24.97;100.00
67434;BME280;54305;47.950;6.572;2023-08-24T06:50:39;94301.69;;;25.20;100.00
67434;BME280;54305;47.950;6.572;2023-08-24T06:53:04;94304.25;;;25.10;100.00
67434;BME280;54305;47.950;6.572;2023-08-24T06:55:30;94299.56;;;25.22;100.00
67434;BME280;54305;47.950;6.572;2023-08-24T06:57:55;94304.88;;;25.43;100.00
67434;BME280;54305;47.950;6.572;2023-08-24T07:00:21;94309.13;;;25.39;100.00
67434;BME280;54305;47.950;6.572;2023-08-24T07:02:46;94304.53;;;25.61;100.00
67434;BME280;54305;47.950;6.572;2023-08-24T07:05:12;94312.13;;;25.74;100.00
67434;BME280;54305;47.950;6.572;2023-08-24T07:07:37;94308.59;;;26.00;100.00
67434;BME280;54305;47.950;6.572;2023-08-24T07:10:03;94301.16;;;26.02;100.00
67434;BME280;54305;47.950;6.572;2023-08-24T07:12:29;94298.00;;;26.10;100.00
67434;BME280;54305;47.950;6.572;2023-08-24T07:14:54;94303.41;;;26.20;100.00
67434;BME280;54305;47.950;6.572;2023-08-24T07:17:19;94302.97;;;26.33;100.00
67434;BME280;54305;47.950;6.572;2023-08-24T07:19:44;94306.75;;;26.42;100.00
67434;BME280;54305;47.950;6.572;2023-08-24T07:22:10;94302.09;;;26.69;100.00
67434;BME280;54305;47.950;6.572;2023-08-24T07:24:36;94294.19;;;26.84;100.00
67434;BME280;54305;47.950;6.572;2023-08-24T07:27:01;94285.09;;;26.85;100.00
67434;BME280;54305;47.950;6.572;2023-08-24T07:29:28;94293.16;;;27.00;100.00
67434;BME280;54305;47.950;6.572;2023-08-24T07:31:53;94285.97;;;27.06;100.00
67434;BME280;54305;47.950;6.572;2023-08-24T07:34:18;94281.44;;;27.16;100.00
67434;BME280;54305;47.950;6.572;2023-08-24T07:36:43;94280.47;;;27.42;100.00
67434;BME280;54305;47.950;6.572;2023-08-24T07:39:11;94285.25;;;27.45;100.00
67434;BME280;54305;47.950;6.572;2023-08-24T07:41:37;94278.06;;;27.61;100.00
67434;BME280;54305;47.950;6.572;2023-08-24T07:44:02;94281.03;;;27.79;100.00
67434;BME280;54305;47.950;6.572;2023-08-24T07:46:28;94276.22;;;27.71;100.00
67434;BME280;54305;47.950;6.572;2023-08-24T07:48:53;94283.19;;;27.97;100.00
67434;BME280;54305;47.950;6.572;2023-08-24T07:51:19;94282.63;;;28.20;100.00
67434;BME280;54305;47.950;6.572;2023-08-24T07:53:44;94277.75;;;28.37;100.00
67434;BME280;54305;47.950;6.572;2023-08-24T07:56:09;94280.44;;;28.52;100.00
67434;BME280;54305;47.950;6.572;2023-08-24T07:58:35;94286.28;;;28.69;100.00
67434;BME280;54305;47.950;6.572;2023-08-24T08:01:01;94288.44;;;28.62;91.82
67434;BME280;54305;47.950;6.572;2023-08-24T08:03:26;94281.03;;;28.39;79.10
67434;BME280;54305;47.950;6.572;2023-08-24T08:05:52;94280.97;;;28.59;89.52
67434;BME280;54305;47.950;6.572;2023-08-24T08:08:17;94279.75;;;28.90;94.77
67434;BME280;54305;47.950;6.572;2023-08-24T08:10:42;94275.88;;;29.26;92.34
67434;BME280;54305;47.950;6.572;2023-08-24T08:13:08;94274.88;;;29.12;79.21
67434;BME280;54305;47.950;6.572;2023-08-24T08:15:36;94286.38;;;28.29;72.15
67434;BME280;54305;47.950;6.572;2023-08-24T08:18:03;94282.63;;;28.15;79.88
67434;BME280;54305;47.950;6.572;2023-08-24T08:20:28;94285.25;;;28.55;78.77
67434;BME280;54305;47.950;6.572;2023-08-24T08:22:54;94288.50;;;28.27;70.91
67434;BME280;54305;47.950;6.572;2023-08-24T08:25:19;94276.69;;;28.53;68.34
67434;BME280;54305;47.950;6.572;2023-08-24T08:27:47;94287.34;;;28.73;66.19
67434;BME280;54305;47.950;6.572;2023-08-24T08:30:12;94291.56;;;28.89;71.16
67434;BME280;54305;47.950;6.572;2023-08-24T08:32:37;94289.88;;;29.13;70.47
67434;BME280;54305;47.950;6.572;2023-08-24T08:35:03;94289.63;;;29.53;68.72
67434;BME280;54305;47.950;6.572;2023-08-24T08:37:30;94289.72;;;29.43;71.42
67434;BME280;54305;47.950;6.572;2023-08-24T08:39:56;94290.34;;;29.25;73.04
67434;BME280;54305;47.950;6.572;2023-08-24T08:42:22;94291.47;;;29.14;80.16
67434;BME280;54305;47.950;6.572;2023-08-24T08:44:47;94282.06;;;29.17;79.81
67434;BME280;54305;47.950;6.572;2023-08-24T08:47:14;94283.06;;;29.31;80.86
67434;BME280;54305;47.950;6.572;2023-08-24T08:49:40;94282.47;;;28.80;87.55
67434;BME280;54305;47.950;6.572;2023-08-24T08:52:07;94271.97;;;29.04;85.24
67434;BME280;54305;47.950;6.572;2023-08-24T08:54:32;94269.25;;;29.09;81.05
67434;BME280;54305;47.950;6.572;2023-08-24T08:57:00;94274.38;;;28.95;82.09
67434;BME280;54305;47.950;6.572;2023-08-24T08:59:27;94278.00;;;29.24;85.51
67434;BME280;54305;47.950;6.572;2023-08-24T09:01:54;94270.56;;;29.16;84.49
67434;BME280;54305;47.950;6.572;2023-08-24T09:04:20;94269.00;;;28.95;79.07
67434;BME280;54305;47.950;6.572;2023-08-24T09:06:45;94273.41;;;28.71;77.29
67434;BME280;54305;47.950;6.572;2023-08-24T09:09:11;94262.53;;;29.11;77.89
67434;BME280;54305;47.950;6.572;2023-08-24T09:11:36;94262.25;;;29.61;76.26
67434;BME280;54305;47.950;6.572;2023-08-24T09:14:02;94258.81;;;29.89;70.98
67434;BME280;54305;47.950;6.572;2023-08-24T09:16:30;94250.56;;;30.09;69.83
67434;BME280;54305;47.950;6.572;2023-08-24T09:18:55;94248.53;;;30.53;69.91
67434;BME280;54305;47.950;6.572;2023-08-24T09:21:20;94252.19;;;30.86;69.30
67434;BME280;54305;47.950;6.572;2023-08-24T09:23:54;94252.88;;;30.49;66.23
67434;BME280;54305;47.950;6.572;2023-08-24T09:26:30;94250.13;;;30.54;66.73
67434;BME280;54305;47.950;6.572;2023-08-24T09:28:55;94248.06;;;30.93;69.70
67434;BME280;54305;47.950;6.572;2023-08-24T09:31:20;94238.25;;;30.84;66.15
67434;BME280;54305;47.950;6.572;2023-08-24T09:33:46;94228.72;;;30.91;65.67
67434;BME280;54305;47.950;6.572;2023-08-24T09:36:13;94226.53;;;30.93;63.47
67434;BME280;54305;47.950;6.572;2023-08-24T09:38:45;94222.81;;;30.89;62.94
67434;BME280;54305;47.950;6.572;2023-08-24T09:41:10;94217.97;;;30.91;65.82
67434;BME280;54305;47.950;6.572;2023-08-24T09:43:35;94216.81;;;30.97;70.08
67434;BME280;54305;47.950;6.572;2023-08-24T09:46:01;94218.25;;;31.32;62.66
67434;BME280;54305;47.950;6.572;2023-08-24T09:48:28;94208.47;;;31.54;63.60
67434;BME280;54305;47.950;6.572;2023-08-24T09:50:53;94206.28;;;31.75;66.94
67434;BME280;54305;47.950;6.572;2023-08-24T09:53:21;94192.22;;;32.24;66.79
67434;BME280;54305;47.950;6.572;2023-08-24T09:55:58;94194.34;;;32.54;63.79
67434;BME280;54305;47.950;6.572;2023-08-24T09:58:24;94189.81;;;32.09;68.58
67434;BME280;54305;47.950;6.572;2023-08-24T10:00:50;94189.59;;;31.92;71.27
67434;BME280;54305;47.950;6.572;2023-08-24T10:03:17;94196.75;;;31.96;66.14
67434;BME280;54305;47.950;6.572;2023-08-24T10:05:46;94185.81;;;32.20;68.49
67434;BME280;54305;47.950;6.572;2023-08-24T10:08:12;94182.88;;;31.38;73.18
67434;BME280;54305;47.950;6.572;2023-08-24T10:10:39;94187.19;;;31.39;73.76
67434;BME280;54305;47.950;6.572;2023-08-24T10:13:08;94187.78;;;31.50;66.26
67434;BME280;54305;47.950;6.572;2023-08-24T10:15:35;94188.38;;;31.98;67.22
67434;BME280;54305;47.950;6.572;2023-08-24T10:18:02;94189.06;;;32.49;60.95
67434;BME280;54305;47.950;6.572;2023-08-24T10:20:28;94183.44;;;32.18;65.18
67434;BME280;54305;47.950;6.572;2023-08-24T10:22:54;94176.66;;;32.21;63.61
67434;BME280;54305;47.950;6.572;2023-08-24T10:25:20;94183.41;;;32.05;61.66
67434;BME280;54305;47.950;6.572;2023-08-24T10:27:48;94179.09;;;32.49;63.55
67434;BME280;54305;47.950;6.572;2023-08-24T10:30:15;94171.09;;;32.85;59.92
67434;BME280;54305;47.950;6.572;2023-08-24T10:32:41;94180.69;;;31.91;61.93
67434;BME280;54305;47.950;6.572;2023-08-24T10:35:07;94170.00;;;32.32;61.87
67434;BME280;54305;47.950;6.572;2023-08-24T10:37:32;94159.47;;;32.98;60.54
67434;BME280;54305;47.950;6.572;2023-08-24T10:39:59;94157.59;;;33.34;54.55
67434;BME280;54305;47.950;6.572;2023-08-24T10:42:24;94157.22;;;34.45;53.35
67434;BME280;54305;47.950;6.572;2023-08-24T10:44:51;94161.59;;;34.72;51.81
67434;BME280;54305;47.950;6.572;2023-08-24T10:47:20;94154.63;;;34.88;48.07
67434;BME280;54305;47.950;6.572;2023-08-24T10:52:33;94150.50;;;34.12;49.31
67434;BME280;54305;47.950;6.572;2023-08-24T10:55:02;94160.19;;;34.05;50.27
67434;BME280;54305;47.950;6.572;2023-08-24T10:57:34;94159.94;;;33.93;50.10
67434;BME280;54305;47.950;6.572;2023-08-24T11:00:10;94160.38;;;33.86;49.11
67434;BME280;54305;47.950;6.572;2023-08-24T11:02:45;94158.09;;;33.58;53.27
67434;BME280;54305;47.950;6.572;2023-08-24T11:08:15;94141.16;;;34.18;53.93
67434;BME280;54305;47.950;6.572;2023-08-24T11:13:14;94142.28;;;34.65;54.96
67434;BME280;54305;47.950;6.572;2023-08-24T11:18:11;94148.47;;;35.89;50.42
67434;BME280;54305;47.950;6.572;2023-08-24T11:20:36;94146.69;;;35.00;44.12
67434;BME280;54305;47.950;6.572;2023-08-24T11:23:01;94152.34;;;34.73;42.29
67434;BME280;54305;47.950;6.572;2023-08-24T11:25:27;94149.84;;;34.85;41.50
67434;BME280;54305;47.950;6.572;2023-08-24T11:27:53;94153.84;;;34.18;47.89
67434;BME280;54305;47.950;6.572;2023-08-24T11:30:18;94157.84;;;35.07;45.46
67434;BME280;54305;47.950;6.572;2023-08-24T11:32:44;94155.31;;;35.19;43.30
67434;BME280;54305;47.950;6.572;2023-08-24T11:35:10;94145.34;;;34.72;47.84
67434;BME280;54305;47.950;6.572;2023-08-24T11:37:36;94140.66;;;35.03;42.08
67434;BME280;54305;47.950;6.572;2023-08-24T11:40:01;94138.78;;;35.46;47.86
67434;BME280;54305;47.950;6.572;2023-08-24T11:42:35;94141.47;;;34.56;42.15
67434;BME280;54305;47.950;6.572;2023-08-24T11:45:00;94121.25;;;35.43;42.94
67434;BME280;54305;47.950;6.572;2023-08-24T11:47:25;94125.22;;;35.80;41.25
67434;BME280;54305;47.950;6.572;2023-08-24T11:49:50;94111.56;;;36.51;41.68
67434;BME280;54305;47.950;6.572;2023-08-24T11:52:16;94112.59;;;36.76;40.44
67434;BME280;54305;47.950;6.572;2023-08-24T11:54:42;94109.28;;;36.16;40.92
67434;BME280;54305;47.950;6.572;2023-08-24T11:57:07;94110.69;;;35.93;39.62
67434;BME280;54305;47.950;6.572;2023-08-24T11:59:36;94103.56;;;35.46;41.55
67434;BME280;54305;47.950;6.572;2023-08-24T12:02:02;94100.03;;;34.30;43.32
67434;BME280;54305;47.950;6.572;2023-08-24T12:04:37;94098.03;;;34.22;45.22
67434;BME280;54305;47.950;6.572;2023-08-24T12:07:08;94089.44;;;33.59;48.13
67434;BME280;54305;47.950;6.572;2023-08-24T12:09:33;94088.09;;;34.87;45.21
67434;BME280;54305;47.950;6.572;2023-08-24T12:11:58;94084.41;;;35.00;45.87
67434;BME280;54305;47.950;6.572;2023-08-24T12:14:23;94088.94;;;34.57;40.74
67434;BME280;54305;47.950;6.572;2023-08-24T12:16:49;94088.66;;;34.67;42.63
67434;BME280;54305;47.950;6.572;2023-08-24T12:19:18;94081.91;;;34.39;42.70
67434;BME280;54305;47.950;6.572;2023-08-24T12:21:46;94083.16;;;34.33;44.05
67434;BME280;54305;47.950;6.572;2023-08-24T12:24:15;94071.66;;;33.58;49.48
67434;BME280;54305;47.950;6.572;2023-08-24T12:26:40;94065.25;;;33.54;49.90
67434;BME280;54305;47.950;6.572;2023-08-24T12:29:06;94061.09;;;34.48;47.72
67434;BME280;54305;47.950;6.572;2023-08-24T12:31:34;94060.34;;;34.73;43.87
67434;BME280;54305;47.950;6.572;2023-08-24T12:34:00;94070.19;;;34.69;46.19
67434;BME280;54305;47.950;6.572;2023-08-24T12:36:26;94062.59;;;34.88;49.11
67434;BME280;54305;47.950;6.572;2023-08-24T12:38:52;94062.56;;;35.56;45.84
67434;BME280;54305;47.950;6.572;2023-08-24T12:41:17;94061.06;;;34.39;46.33
67434;BME280;54305;47.950;6.572;2023-08-24T12:43:43;94058.75;;;34.72;48.09
67434;BME280;54305;47.950;6.572;2023-08-24T12:46:08;94059.75;;;34.93;44.51
67434;BME280;54305;47.950;6.572;2023-08-24T12:48:34;94062.16;;;35.28;45.48
67434;BME280;54305;47.950;6.572;2023-08-24T12:50:59;94060.78;;;35.68;45.02
67434;BME280;54305;47.950;6.572;2023-08-24T12:53:25;94055.47;;;33.88;46.64
67434;BME280;54305;47.950;6.572;2023-08-24T12:55:50;94060.53;;;33.59;47.29
67434;BME280;54305;47.950;6.572;2023-08-24T12:58:15;94051.34;;;33.69;47.92
67434;BME280;54305;47.950;6.572;2023-08-24T13:00:41;94053.59;;;33.67;51.47
67434;BME280;54305;47.950;6.572;2023-08-24T13:03:06;94043.53;;;33.59;49.78